Scio, Michigan
Current Conditions -  °F | °C
As of 10:59 PM on Friday 24 Oct 2014 (Local Time) from KARB Reporting Station
Haze Haze  
Wind Chill:   Ceiling: Unl
Heat Index:   Visibility: 0.75mi
Dew Point:   Wind: 0mph
Humidity: 89%   Direction: NA
Pressure: 29.97"   Gusts: NA
Location:  42.3528°N, 83.8974°W
Report Text: KARB 250259Z AUTO 00000KT 3/4SM BR CLR 04/02 A2997 RMK AO2 T00390022
Loading
Personal Weather Stations






























Interactive Weather Map
Tropical Storm Tracking
New forecast layout! Learn more

10-Day Weather Forecast

Advertisements
Track Severe Weather on mobile